Time;durP1;ratioP1;P1;durP2;ratioP2;P2;SDS_P1;SDS_P2;PMS_P1;PMS_P2;Temp;Humidity;BMP_temperature;BMP_pressure;BME280_temperature;BME280_humidity;BME280_pressure;Samples;Min_cycle;Max_cycle;Signal;HPM_P1;HPM_P2
2023/08/22 00:01:08;;;;;;;0.00;0.00;;;;;;;27.73;53.73;102132.72;5048798;28;20563;-67
2023/08/22 00:03:33;;;;;;;0.00;0.00;;;;;;;27.80;53.20;102133.13;5048511;28;20074;-66
2023/08/22 00:05:58;;;;;;;0.00;0.00;;;;;;;27.87;53.29;102141.03;5048632;28;20448;-66
2023/08/22 00:08:25;;;;;;;0.00;0.00;;;;;;;27.77;53.03;102132.94;5048797;28;20034;-67
2023/08/22 00:10:50;;;;;;;0.00;0.00;;;;;;;27.91;52.49;102138.44;5049230;28;20414;-67
2023/08/22 00:13:16;;;;;;;0.00;0.00;;;;;;;27.42;53.50;102131.72;5048387;28;20124;-67
2023/08/22 00:15:41;;;;;;;0.00;0.00;;;;;;;27.49;53.43;102132.16;5048155;28;20408;-67
2023/08/22 00:18:08;;;;;;;0.00;0.00;;;;;;;27.66;53.55;102128.75;5048128;28;20053;-67
2023/08/22 00:20:33;;;;;;;0.00;0.00;;;;;;;27.54;53.08;102122.91;5048655;28;20036;-67
2023/08/22 00:22:58;;;;;;;0.00;0.00;;;;;;;27.43;53.93;102114.03;5048467;28;20033;-67
2023/08/22 00:25:24;;;;;;;0.00;0.00;;;;;;;27.24;54.38;102113.31;5048864;28;20388;-66
2023/08/22 00:27:49;;;;;;;0.00;0.00;;;;;;;27.36;54.03;102108.09;5066582;28;20086;-65
2023/08/22 00:30:15;;;;;;;0.00;0.00;;;;;;;27.39;54.07;102112.19;5068550;28;20041;-67
2023/08/22 00:32:40;;;;;;;0.00;0.00;;;;;;;27.29;54.42;102118.72;5068623;28;20154;-67
2023/08/22 00:35:06;;;;;;;0.00;0.00;;;;;;;27.52;53.85;102125.16;5059369;28;20041;-67
2023/08/22 00:37:31;;;;;;;0.00;0.00;;;;;;;27.39;53.91;102123.25;5048945;28;20453;-66
2023/08/22 00:39:56;;;;;;;0.00;0.00;;;;;;;27.13;55.55;102122.88;5048545;28;20140;-66
2023/08/22 00:42:22;;;;;;;0.00;0.00;;;;;;;27.07;55.67;102128.78;5048273;28;20037;-65
2023/08/22 00:44:47;;;;;;;0.00;0.00;;;;;;;27.08;54.95;102123.00;5048036;28;20025;-66
2023/08/22 00:47:14;;;;;;;0.00;0.00;;;;;;;27.26;54.96;102115.75;5048230;28;20029;-67
2023/08/22 00:49:40;;;;;;;0.00;0.00;;;;;;;27.27;54.46;102112.69;5048505;28;20029;-66
2023/08/22 00:52:07;;;;;;;0.00;0.00;;;;;;;26.98;55.97;102112.13;5048216;28;20083;-66
2023/08/22 00:54:33;;;;;;;0.00;0.00;;;;;;;27.06;55.28;102111.44;5048386;28;20037;-66
2023/08/22 00:56:58;;;;;;;0.00;0.00;;;;;;;27.08;55.27;102109.19;5048412;28;20052;-65
2023/08/22 00:59:26;;;;;;;0.00;0.00;;;;;;;27.21;55.18;102105.63;5048006;28;20037;-66
2023/08/22 01:01:51;;;;;;;0.00;0.00;;;;;;;27.38;54.40;102107.81;5049062;28;20040;-66
2023/08/22 01:04:17;;;;;;;0.00;0.00;;;;;;;27.37;54.66;102098.69;5048079;28;20408;-66
2023/08/22 01:06:53;;;;;;;0.00;0.00;;;;;;;27.20;55.11;102103.16;5048283;28;20040;-66
2023/08/22 01:09:42;;;;;;;0.00;0.00;;;;;;;27.23;55.00;102095.09;5048144;28;20044;-66
2023/08/22 01:12:27;;;;;;;0.00;0.00;;;;;;;27.23;55.34;102105.31;5048303;28;20262;-67
2023/08/22 01:15:05;;;;;;;0.00;0.00;;;;;;;27.30;55.02;102103.75;5047942;28;20118;-66
2023/08/22 01:17:31;;;;;;;0.00;0.00;;;;;;;27.31;54.56;102099.91;5047850;28;20044;-67
2023/08/22 01:19:56;;;;;;;0.00;0.00;;;;;;;27.49;54.37;102092.66;5047989;28;20220;-66
2023/08/22 01:22:25;;;;;;;0.00;0.00;;;;;;;27.43;54.35;102091.13;5048242;28;20032;-66
2023/08/22 01:24:51;;;;;;;0.00;0.00;;;;;;;27.16;55.41;102099.38;5048056;28;20087;-65
2023/08/22 01:27:21;;;;;;;0.00;0.00;;;;;;;27.31;56.27;102088.03;5050197;28;20392;-66
2023/08/22 01:29:55;;;;;;;0.00;0.00;;;;;;;27.30;55.09;102086.41;5033481;28;20039;-66
2023/08/22 01:32:29;;;;;;;0.00;0.00;;;;;;;27.44;54.82;102073.44;5051300;28;20037;-67
2023/08/22 01:35:04;;;;;;;0.00;0.00;;;;;;;27.46;54.38;102080.28;5051940;28;20024;-67
2023/08/22 01:37:31;;;;;;;0.00;0.00;;;;;;;27.47;55.03;102072.81;5051417;28;20411;-66
2023/08/22 01:39:58;;;;;;;0.00;0.00;;;;;;;27.35;54.90;102067.00;5051326;28;20593;-67
2023/08/22 01:42:24;;;;;;;0.00;0.00;;;;;;;27.70;54.00;102072.56;5051179;28;20094;-66
2023/08/22 01:44:49;;;;;;;0.00;0.00;;;;;;;27.55;54.23;102074.84;5050977;28;20036;-66
2023/08/22 01:47:15;;;;;;;0.00;0.00;;;;;;;27.39;54.63;102070.78;5051198;28;20036;-66
2023/08/22 01:49:40;;;;;;;0.00;0.00;;;;;;;27.51;54.87;102073.84;5051334;28;20025;-66
2023/08/22 01:52:05;;;;;;;0.00;0.00;;;;;;;27.63;54.19;102074.97;5051080;28;20033;-68
2023/08/22 01:54:31;;;;;;;0.00;0.00;;;;;;;27.55;54.44;102066.56;5051050;28;20036;-66
2023/08/22 01:56:56;;;;;;;0.00;0.00;;;;;;;27.75;53.65;102064.16;5051105;28;20029;-66
2023/08/22 01:59:22;;;;;;;0.00;0.00;;;;;;;27.72;54.03;102067.56;5050921;28;20040;-66
2023/08/22 02:01:47;;;;;;;0.10;0.10;;;;;;;27.65;53.94;102069.13;5051608;28;20029;-66
2023/08/22 02:04:13;;;;;;;0.00;0.00;;;;;;;27.68;53.94;102065.72;5050684;28;20386;-67
2023/08/22 02:06:38;;;;;;;0.00;0.00;;;;;;;27.65;53.57;102067.19;5050715;28;20033;-66
2023/08/22 02:09:05;;;;;;;0.00;0.00;;;;;;;27.50;54.40;102078.53;5050716;28;20076;-67
2023/08/22 02:11:30;;;;;;;0.00;0.00;;;;;;;27.35;54.10;102061.47;5050977;28;20025;-66
2023/08/22 02:13:56;;;;;;;0.00;0.00;;;;;;;27.49;54.28;102062.28;5051158;28;20439;-66
2023/08/22 02:16:21;;;;;;;0.00;0.00;;;;;;;27.42;53.68;102070.19;5048506;28;20079;-65
2023/08/22 02:18:46;;;;;;;0.00;0.00;;;;;;;27.25;54.88;102064.41;5053663;28;20059;-66
2023/08/22 02:21:12;;;;;;;0.00;0.00;;;;;;;27.28;54.58;102063.81;5070429;28;20036;-65
2023/08/22 02:23:37;;;;;;;0.00;0.00;;;;;;;27.25;54.24;102067.16;5070519;28;20118;-66
2023/08/22 02:26:02;;;;;;;0.00;0.00;;;;;;;27.32;54.23;102059.31;5070783;28;20028;-66
2023/08/22 02:28:28;;;;;;;0.00;0.00;;;;;;;27.16;53.90;102056.03;5054862;28;20476;-65
2023/08/22 02:30:56;;;;;;;0.00;0.00;;;;;;;26.81;55.40;102052.00;5050303;28;20040;-66
2023/08/22 02:33:22;;;;;;;0.00;0.00;;;;;;;26.73;55.57;102055.47;5050315;28;20564;-65
2023/08/22 02:35:48;;;;;;;0.00;0.00;;;;;;;26.61;55.82;102049.59;5050027;28;20234;-66
2023/08/22 02:38:13;;;;;;;0.00;0.00;;;;;;;27.04;55.08;102044.69;5050060;28;20381;-65
2023/08/22 02:40:38;;;;;;;0.00;0.00;;;;;;;27.04;54.58;102041.94;5050675;28;20083;-66
2023/08/22 02:43:04;;;;;;;0.00;0.00;;;;;;;26.83;54.51;102046.19;5050104;28;20041;-66
2023/08/22 02:45:29;;;;;;;0.00;0.00;;;;;;;26.90;54.47;102039.16;5064490;28;20400;-66
2023/08/22 02:47:55;;;;;;;0.00;0.00;;;;;;;27.02;54.33;102044.19;5051918;28;20040;-67
2023/08/22 02:50:23;;;;;;;0.00;0.00;;;;;;;26.86;54.30;102043.66;5069707;28;20089;-67
2023/08/22 02:52:51;;;;;;;0.00;0.00;;;;;;;27.07;53.71;102037.72;5070256;28;20373;-66
2023/08/22 02:55:17;;;;;;;0.00;0.00;;;;;;;26.74;54.87;102032.31;5069351;28;20036;-66
2023/08/22 02:57:43;;;;;;;0.00;0.00;;;;;;;26.77;54.75;102036.41;5049932;28;20390;-66
2023/08/22 03:00:11;;;;;;;0.00;0.00;;;;;;;26.76;55.03;102029.22;5041815;28;20037;-65
2023/08/22 03:02:37;;;;;;;0.00;0.00;;;;;;;26.76;54.71;102032.81;5049945;28;20049;-67
2023/08/22 03:05:04;;;;;;;0.00;0.00;;;;;;;26.81;54.37;102038.22;5050952;28;20112;-66
2023/08/22 03:07:29;;;;;;;0.00;0.00;;;;;;;26.87;53.83;102041.69;5051216;28;20597;-66
2023/08/22 03:09:55;;;;;;;0.00;0.00;;;;;;;26.85;54.16;102035.66;5050998;28;20037;-66
2023/08/22 03:12:20;;;;;;;0.00;0.00;;;;;;;26.79;53.76;102036.91;5050909;28;20025;-66
2023/08/22 03:14:46;;;;;;;0.00;0.00;;;;;;;26.86;53.66;102040.06;5051042;28;20045;-66
2023/08/22 03:17:12;;;;;;;0.00;0.00;;;;;;;26.52;54.34;102047.84;5070194;28;20052;-66
2023/08/22 03:19:37;;;;;;;0.00;0.00;;;;;;;26.67;54.15;102048.38;5051261;28;20029;-66
2023/08/22 03:22:02;;;;;;;0.00;0.00;;;;;;;26.63;53.85;102047.34;5050586;28;20052;-67
2023/08/22 03:24:28;;;;;;;0.00;0.00;;;;;;;26.30;55.25;102045.72;5042869;28;20056;-65
2023/08/22 03:26:53;;;;;;;0.00;0.00;;;;;;;26.51;54.45;102048.97;5050440;28;20362;-66
2023/08/22 03:29:19;;;;;;;0.00;0.00;;;;;;;26.56;54.28;102046.09;5032194;28;20044;-66
2023/08/22 03:31:44;;;;;;;0.00;0.00;;;;;;;26.51;55.03;102041.53;5050851;28;20033;-66
2023/08/22 03:34:09;;;;;;;0.00;0.00;;;;;;;26.45;55.20;102044.66;5050436;28;20079;-67
2023/08/22 03:36:35;;;;;;;0.00;0.00;;;;;;;26.50;54.83;102041.81;5050457;28;20037;-66
2023/08/22 03:39:01;;;;;;;0.00;0.00;;;;;;;26.49;55.14;102035.50;5050339;28;20039;-66
2023/08/22 03:41:26;;;;;;;0.00;0.00;;;;;;;26.67;54.28;102033.78;5050340;28;20108;-67
2023/08/22 03:43:52;;;;;;;0.00;0.00;;;;;;;26.54;54.89;102035.38;5051597;28;20484;-65
2023/08/22 03:46:17;;;;;;;0.00;0.00;;;;;;;26.62;55.27;102031.94;5070214;28;20097;-66
2023/08/22 03:48:43;;;;;;;0.00;0.00;;;;;;;26.54;55.21;102034.56;5069427;28;20032;-66
2023/08/22 03:51:08;;;;;;;0.00;0.00;;;;;;;26.51;54.77;102037.94;5058977;28;20477;-65
2023/08/22 03:53:34;;;;;;;0.00;0.00;;;;;;;26.39;55.58;102030.16;5050181;28;20033;-66
2023/08/22 03:55:59;;;;;;;0.00;0.00;;;;;;;26.45;55.13;102037.22;5049979;28;20401;-66
2023/08/22 03:58:25;;;;;;;0.00;0.00;;;;;;;26.54;54.84;102038.16;5050421;28;20029;-66
2023/08/22 04:00:54;;;;;;;0.00;0.00;;;;;;;26.62;54.96;102034.69;5047552;28;20086;-66
2023/08/22 04:03:19;;;;;;;0.00;0.00;;;;;;;26.58;54.75;102030.91;5029304;28;20033;-67
2023/08/22 04:05:45;;;;;;;0.00;0.00;;;;;;;26.66;54.91;102027.44;5032991;28;20037;-67
2023/08/22 04:08:10;;;;;;;0.00;0.00;;;;;;;26.71;54.07;102029.34;5041569;28;20067;-65
2023/08/22 04:10:35;;;;;;;0.10;0.10;;;;;;;26.64;54.57;102024.19;5039378;28;20029;-66
2023/08/22 04:13:01;;;;;;;0.00;0.00;;;;;;;26.50;55.29;102028.84;5052460;28;20025;-67
2023/08/22 04:15:26;;;;;;;0.00;0.00;;;;;;;26.63;54.84;102025.28;5049539;28;20074;-66
2023/08/22 04:17:52;;;;;;;0.00;0.00;;;;;;;26.63;55.23;102030.00;5041206;28;20053;-65
2023/08/22 04:20:17;;;;;;;0.00;0.00;;;;;;;26.48;55.85;102035.78;5029597;28;20078;-66
2023/08/22 04:22:43;;;;;;;0.00;0.00;;;;;;;26.45;55.18;102022.59;5030266;28;20500;-68
2023/08/22 04:25:10;;;;;;;0.00;0.00;;;;;;;26.59;54.30;102020.69;5029573;28;20433;-66
2023/08/22 04:27:35;;;;;;;0.00;0.00;;;;;;;26.58;54.59;102019.88;5029718;28;20056;-66
2023/08/22 04:30:01;;;;;;;0.00;0.00;;;;;;;26.72;54.49;102017.16;5029894;28;20029;-66
2023/08/22 04:32:26;;;;;;;0.00;0.00;;;;;;;26.43;54.68;102022.09;5029786;28;20036;-66
2023/08/22 04:34:52;;;;;;;0.00;0.00;;;;;;;26.49;54.30;102018.13;5029968;28;20056;-65
2023/08/22 04:37:17;;;;;;;0.00;0.00;;;;;;;26.53;54.75;102017.22;5029447;28;20497;-67
2023/08/22 04:39:43;;;;;;;0.00;0.00;;;;;;;26.42;55.08;102021.25;5028776;28;20116;-65
2023/08/22 04:42:08;;;;;;;0.00;0.00;;;;;;;26.39;54.90;102030.16;5011596;28;20547;-66
2023/08/22 04:44:33;;;;;;;0.00;0.00;;;;;;;26.33;54.58;102028.59;5029313;28;20037;-66
2023/08/22 04:46:59;;;;;;;0.03;0.03;;;;;;;26.34;55.23;102030.22;5029371;28;20029;-66
2023/08/22 04:49:24;;;;;;;0.00;0.00;;;;;;;26.38;55.06;102024.94;5029892;28;20037;-67
2023/08/22 04:51:50;;;;;;;0.00;0.00;;;;;;;26.40;55.13;102019.91;5029170;28;20033;-67
2023/08/22 04:54:15;;;;;;;0.00;0.00;;;;;;;26.46;54.64;102022.31;5029389;28;20073;-67
2023/08/22 04:56:40;;;;;;;0.00;0.00;;;;;;;26.37;54.59;102028.81;5029436;28;20033;-66
2023/08/22 04:59:06;;;;;;;0.00;0.00;;;;;;;26.29;55.08;102030.31;5029503;28;20033;-66
2023/08/22 05:01:31;;;;;;;0.00;0.00;;;;;;;26.49;54.33;102029.16;5032712;28;20369;-66
2023/08/22 05:03:57;;;;;;;0.00;0.00;;;;;;;26.62;53.93;102031.94;5033160;28;20045;-67
2023/08/22 05:06:22;;;;;;;0.00;0.00;;;;;;;26.59;54.38;102024.28;5033059;28;20037;-66
2023/08/22 05:08:47;;;;;;;0.00;0.00;;;;;;;26.59;54.39;102016.00;5048548;28;20025;-65
2023/08/22 05:11:13;;;;;;;0.08;0.08;;;;;;;26.51;55.05;102033.25;5052838;28;20024;-66
2023/08/22 05:13:38;;;;;;;0.00;0.00;;;;;;;26.50;54.32;102031.59;5053283;28;20028;-66
2023/08/22 05:16:03;;;;;;;0.00;0.00;;;;;;;26.57;54.55;102033.97;5032608;28;20033;-65
2023/08/22 05:18:29;;;;;;;0.00;0.00;;;;;;;26.36;55.47;102032.69;5031664;28;20064;-66
2023/08/22 05:20:54;;;;;;;0.00;0.00;;;;;;;26.41;55.14;102033.44;5031849;28;20037;-66
2023/08/22 05:23:20;;;;;;;0.00;0.00;;;;;;;26.53;55.04;102031.00;5031608;28;20045;-65
2023/08/22 05:25:45;;;;;;;0.00;0.00;;;;;;;26.47;55.11;102026.72;5035768;28;20037;-67
2023/08/22 05:28:10;;;;;;;0.00;0.00;;;;;;;26.57;54.51;102032.03;5032731;28;20041;-67
2023/08/22 05:30:39;;;;;;;0.00;0.00;;;;;;;26.57;55.51;102033.97;5032576;28;20045;-66
2023/08/22 05:33:05;;;;;;;0.00;0.00;;;;;;;26.52;55.66;102028.53;5032765;28;20505;-66
2023/08/22 05:35:31;;;;;;;0.00;0.00;;;;;;;26.59;55.32;102031.72;5032196;28;20192;-66
2023/08/22 05:37:56;;;;;;;0.00;0.00;;;;;;;26.86;54.13;102031.78;5032360;28;20124;-67
2023/08/22 05:40:21;;;;;;;0.00;0.00;;;;;;;26.84;54.35;102034.03;5033059;28;20021;-67
2023/08/22 05:42:47;;;;;;;0.00;0.00;;;;;;;26.90;54.47;102027.31;5013850;28;20091;-66
2023/08/22 05:45:12;;;;;;;0.00;0.00;;;;;;;27.05;54.19;102031.69;5027692;28;20386;-66
2023/08/22 05:47:38;;;;;;;0.00;0.00;;;;;;;27.13;53.74;102031.81;5063919;28;20087;-66
2023/08/22 05:50:04;;;;;;;0.00;0.00;;;;;;;27.07;54.37;102029.44;5045495;28;20036;-67
2023/08/22 05:52:30;;;;;;;0.00;0.00;;;;;;;27.27;53.29;102031.78;5031504;28;20036;-66
2023/08/22 05:54:55;;;;;;;0.00;0.00;;;;;;;27.03;53.15;102025.69;5031128;28;20029;-67
2023/08/22 05:57:22;;;;;;;0.00;0.00;;;;;;;27.01;53.42;102037.00;5031332;28;20030;-67
2023/08/22 05:59:48;;;;;;;0.00;0.00;;;;;;;27.15;52.42;102037.84;5030588;28;20052;-68
2023/08/22 06:02:14;;;;;;;0.00;0.00;;;;;;;26.93;53.13;102030.25;5010242;28;20029;-66
2023/08/22 06:04:39;;;;;;;0.10;0.10;;;;;;;27.34;52.32;102046.03;5013513;28;20025;-66
2023/08/22 06:07:05;;;;;;;0.00;0.00;;;;;;;27.45;52.17;102045.53;5030501;28;20038;-67
2023/08/22 06:09:31;;;;;;;0.00;0.00;;;;;;;27.14;53.11;102044.50;5030258;28;20101;-67
2023/08/22 06:11:56;;;;;;;0.00;0.00;;;;;;;27.11;54.02;102044.25;5029893;28;20041;-65
2023/08/22 06:14:22;;;;;;;0.00;0.00;;;;;;;26.79;54.29;102045.97;5030997;28;20040;-66
2023/08/22 06:16:47;;;;;;;0.00;0.00;;;;;;;27.46;52.60;102038.06;5037646;28;20041;-66
2023/08/22 06:19:12;;;;;;;0.00;0.00;;;;;;;27.39;52.90;102032.94;5047624;28;20098;-66
2023/08/22 06:21:38;;;;;;;0.00;0.00;;;;;;;27.55;52.73;102034.25;5050452;28;20405;-67
2023/08/22 06:24:04;;;;;;;0.00;0.00;;;;;;;27.81;51.60;102035.28;5050803;28;20041;-67
2023/08/22 06:26:30;;;;;;;0.00;0.00;;;;;;;27.79;51.74;102032.03;5032667;28;20116;-68
2023/08/22 06:28:55;;;;;;;0.00;0.00;;;;;;;27.91;51.17;102034.22;5052190;28;20125;-68
2023/08/22 06:31:21;;;;;;;0.00;0.00;;;;;;;27.48;51.92;102042.13;5051480;28;20381;-66
2023/08/22 06:33:46;;;;;;;0.00;0.00;;;;;;;27.93;51.39;102042.22;5051413;28;20045;-67
2023/08/22 06:36:11;;;;;;;0.00;0.00;;;;;;;28.20;50.45;102039.38;5051450;28;20432;-68
2023/08/22 06:38:37;;;;;;;0.00;0.00;;;;;;;27.68;51.93;102041.69;5051271;28;20505;-67
2023/08/22 06:41:04;;;;;;;0.00;0.00;;;;;;;27.99;50.45;102049.31;5051268;28;20064;-67
2023/08/22 06:43:29;;;;;;;0.00;0.00;;;;;;;27.71;51.26;102048.53;5051497;28;20032;-67
2023/08/22 06:45:58;;;;;;;0.00;0.00;;;;;;;27.85;50.28;102045.72;5051269;28;20778;-66
2023/08/22 06:48:23;;;;;;;0.00;0.00;;;;;;;27.61;51.39;102046.81;5051063;28;20477;-67
2023/08/22 06:50:49;;;;;;;0.00;0.00;;;;;;;27.55;51.29;102048.06;5051084;28;20040;-66
2023/08/22 06:53:14;;;;;;;0.00;0.00;;;;;;;27.22;51.67;102056.75;5050989;28;20028;-67
2023/08/22 06:55:41;;;;;;;0.00;0.00;;;;;;;27.43;51.23;102050.53;5051489;28;20040;-67
2023/08/22 06:58:08;;;;;;;0.00;0.00;;;;;;;27.20;51.69;102059.00;5050993;28;20132;-66
2023/08/22 07:00:33;;;;;;;0.00;0.00;;;;;;;27.62;50.64;102058.66;5060763;28;20043;-66
2023/08/22 07:02:59;;;;;;;0.00;0.00;;;;;;;27.80;50.37;102050.25;5070692;28;20037;-66
2023/08/22 07:05:24;;;;;;;0.00;0.00;;;;;;;27.20;50.77;102051.53;5070480;28;20055;-68
2023/08/22 07:07:49;;;;;;;0.00;0.00;;;;;;;27.46;50.78;102051.88;5070458;28;20024;-66
2023/08/22 07:10:15;;;;;;;0.00;0.00;;;;;;;27.39;50.02;102049.50;5050482;28;20037;-66
2023/08/22 07:12:40;;;;;;;0.00;0.00;;;;;;;27.66;48.75;102045.88;5050467;28;20501;-66
2023/08/22 07:15:06;;;;;;;0.00;0.00;;;;;;;27.90;47.59;102049.19;5050375;28;20493;-66
2023/08/22 07:17:32;;;;;;;0.00;0.00;;;;;;;27.72;47.26;102047.41;5050425;28;20057;-67
2023/08/22 07:19:57;;;;;;;0.00;0.00;;;;;;;27.14;48.53;102047.25;5050447;28;20036;-66
2023/08/22 07:22:23;;;;;;;0.00;0.00;;;;;;;27.53;47.52;102052.25;5050788;28;20025;-67
2023/08/22 07:24:48;;;;;;;0.00;0.00;;;;;;;27.48;47.83;102044.88;5050352;28;20083;-66
2023/08/22 07:27:14;;;;;;;0.00;0.00;;;;;;;28.49;45.47;102051.63;5029226;28;20073;-66
2023/08/22 07:29:39;;;;;;;0.00;0.00;;;;;;;27.34;47.74;102063.41;5030367;28;20117;-67
2023/08/22 07:32:06;;;;;;;0.00;0.00;;;;;;;28.29;45.83;102062.38;5030444;28;20025;-60
2023/08/22 07:34:31;;;;;;;0.00;0.00;;;;;;;27.98;46.13;102061.47;5030976;28;20045;-61
2023/08/22 07:36:57;;;;;;;0.00;0.00;;;;;;;28.58;44.36;102060.81;5030052;28;20463;-59
2023/08/22 07:39:23;;;;;;;0.00;0.00;;;;;;;28.66;44.45;102059.22;5030172;28;20051;-59
2023/08/22 07:41:48;;;;;;;0.00;0.00;;;;;;;29.03;44.30;102066.25;5029987;28;20091;-61
2023/08/22 07:44:14;;;;;;;0.00;0.00;;;;;;;28.56;44.46;102067.78;5038943;28;20028;-60
2023/08/22 07:46:39;;;;;;;0.00;0.00;;;;;;;28.44;44.99;102076.63;5050479;28;20021;-58
2023/08/22 07:49:05;;;;;;;0.00;0.00;;;;;;;28.55;44.48;102071.69;5038841;28;20030;-60
2023/08/22 07:51:31;;;;;;;0.00;0.00;;;;;;;28.47;43.31;102069.66;5030712;28;20419;-59
2023/08/22 07:53:56;;;;;;;0.00;0.00;;;;;;;28.63;43.05;102070.94;5030747;28;20026;-60
2023/08/22 07:56:21;;;;;;;0.00;0.00;;;;;;;27.79;44.88;102079.00;5030314;28;20033;-61
2023/08/22 07:58:48;;;;;;;0.00;0.00;;;;;;;28.42;43.27;102072.56;5030117;28;20025;-59
2023/08/22 08:01:13;;;;;;;0.00;0.00;;;;;;;28.04;43.56;102074.88;5029790;28;20052;-58
2023/08/22 08:03:38;;;;;;;0.00;0.00;;;;;;;27.88;44.48;102073.56;5029749;28;20037;-60
2023/08/22 08:06:04;;;;;;;0.00;0.00;;;;;;;28.47;44.32;102086.25;5029563;28;20033;-59
2023/08/22 08:08:29;;;;;;;0.00;0.00;;;;;;;28.30;44.60;102086.13;5035797;28;20040;-61
2023/08/22 08:10:55;;;;;;;0.00;0.00;;;;;;;29.22;43.45;102078.75;5050065;28;20053;-61
2023/08/22 08:13:20;;;;;;;0.00;0.00;;;;;;;28.55;43.22;102091.06;5049563;28;20110;-59
2023/08/22 08:15:46;;;;;;;0.00;0.00;;;;;;;28.67;43.86;102096.84;5049229;28;20575;-59
2023/08/22 08:18:11;;;;;;;0.00;0.00;;;;;;;29.28;42.77;102093.25;5049030;28;20052;-60
2023/08/22 08:20:37;;;;;;;0.00;0.00;;;;;;;29.43;42.29;102096.41;5038742;28;20079;-60
2023/08/22 08:23:03;;;;;;;0.00;0.00;;;;;;;28.45;44.20;102100.41;5029577;28;20036;-59
2023/08/22 08:25:29;;;;;;;0.00;0.00;;;;;;;28.95;43.19;102101.06;5030130;28;20033;-60
2023/08/22 08:27:55;;;;;;;0.00;0.00;;;;;;;29.08;43.07;102113.16;5029211;28;20525;-59
2023/08/22 08:30:21;;;;;;;0.00;0.00;;;;;;;29.31;43.27;102103.69;5028871;28;20084;-61
2023/08/22 08:32:46;;;;;;;0.00;0.00;;;;;;;30.00;41.79;102094.41;5028862;28;20037;-60
2023/08/22 08:35:12;;;;;;;0.00;0.00;;;;;;;29.86;43.23;102087.38;5030167;28;20516;-59
2023/08/22 08:37:37;;;;;;;0.00;0.00;;;;;;;28.41;45.47;102093.03;5033496;28;20029;-60
2023/08/22 08:40:06;;;;;;;0.00;0.00;;;;;;;28.49;45.28;102103.34;5033119;28;20045;-60
2023/08/22 08:42:34;;;;;;;0.00;0.00;;;;;;;28.97;43.95;102096.00;5033471;28;20065;-60
2023/08/22 08:45:00;;;;;;;0.00;0.00;;;;;;;28.80;43.54;102087.63;5048198;28;20037;-61
2023/08/22 08:47:26;;;;;;;0.00;0.00;;;;;;;29.42;42.22;102089.22;5053138;28;20534;-59
2023/08/22 08:49:53;;;;;;;0.00;0.00;;;;;;;30.11;41.70;102098.47;5035340;28;20036;-60
2023/08/22 08:52:19;;;;;;;0.00;0.00;;;;;;;29.81;41.16;102098.63;5028947;28;20044;-59
2023/08/22 08:54:47;;;;;;;0.00;0.00;;;;;;;29.73;41.22;102107.75;5013434;28;20452;-59
2023/08/22 08:57:14;;;;;;;0.00;0.00;;;;;;;28.53;42.95;102101.59;5013425;28;20045;-59
2023/08/22 08:59:41;;;;;;;0.00;0.00;;;;;;;29.66;41.07;102094.31;5013155;28;20065;-59
2023/08/22 09:02:14;;;;;;;0.00;0.00;;;;;;;29.66;41.24;102102.63;5027756;28;20072;-60
2023/08/22 09:04:40;;;;;;;0.00;0.00;;;;;;;30.30;40.19;102103.75;5033551;28;20422;-59
2023/08/22 09:07:09;;;;;;;0.00;0.00;;;;;;;30.07;40.67;102093.94;5032442;28;20053;-60
2023/08/22 09:09:35;;;;;;;0.00;0.00;;;;;;;29.74;41.87;102090.78;5032820;28;20037;-59
2023/08/22 09:12:08;;;;;;;0.00;0.00;;;;;;;29.50;41.96;102102.28;5032952;28;20052;-60
2023/08/22 09:14:34;;;;;;;0.00;0.00;;;;;;;30.06;41.10;102103.38;5032885;28;20055;-61
2023/08/22 09:17:01;;;;;;;0.00;0.00;;;;;;;30.63;40.72;102093.72;5032828;28;20373;-59
2023/08/22 09:19:31;;;;;;;0.00;0.00;;;;;;;29.87;41.14;102095.38;5043642;28;20056;-60
2023/08/22 09:21:58;;;;;;;0.00;0.00;;;;;;;30.08;40.38;102088.06;5052148;28;20374;-61
2023/08/22 09:24:25;;;;;;;0.00;0.00;;;;;;;29.37;42.24;102094.09;5052587;28;20033;-59
2023/08/22 09:26:50;;;;;;;0.00;0.00;;;;;;;29.49;41.49;102094.28;5052380;28;20041;-61
2023/08/22 09:29:24;;;;;;;0.00;0.00;;;;;;;30.15;40.90;102095.91;5051909;28;20040;-59
2023/08/22 09:31:51;;;;;;;0.00;0.00;;;;;;;30.49;40.36;102087.56;5052771;28;20099;-60
2023/08/22 09:34:17;;;;;;;0.00;0.00;;;;;;;30.49;40.18;102086.72;5052235;28;20041;-59
2023/08/22 09:36:46;;;;;;;0.00;0.00;;;;;;;30.37;39.65;102097.72;5052132;28;20075;-59
2023/08/22 09:39:19;;;;;;;0.00;0.00;;;;;;;31.03;39.37;102085.97;5034275;28;20037;-61
2023/08/22 09:41:45;;;;;;;0.00;0.00;;;;;;;31.10;37.79;102092.63;5052044;28;20459;-60
2023/08/22 09:44:11;;;;;;;0.00;0.00;;;;;;;30.43;39.56;102096.41;5060553;28;20025;-60
2023/08/22 09:46:40;;;;;;;0.00;0.00;;;;;;;29.93;39.43;102088.53;5071543;28;20021;-61
2023/08/22 09:49:09;;;;;;;0.00;0.00;;;;;;;31.14;38.52;102082.50;5068341;28;20155;-60
2023/08/22 09:51:37;;;;;;;0.00;0.00;;;;;;;30.17;38.84;102091.63;5053601;28;20040;-59
2023/08/22 09:54:04;;;;;;;0.00;0.00;;;;;;;31.43;36.95;102086.47;5052085;28;20033;-60
2023/08/22 09:56:31;;;;;;;0.00;0.00;;;;;;;30.72;38.61;102082.63;5052152;28;20041;-59
2023/08/22 09:58:58;;;;;;;0.00;0.00;;;;;;;31.19;36.77;102090.63;5051860;28;20119;-59
2023/08/22 10:01:24;;;;;;;0.00;0.00;;;;;;;31.39;37.29;102096.63;5052173;28;20031;-60
2023/08/22 10:03:53;;;;;;;0.00;0.00;;;;;;;31.41;37.23;102075.66;5051799;28;20127;-61
2023/08/22 10:06:22;;;;;;;0.00;0.00;;;;;;;31.82;36.19;102088.84;5051746;28;20044;-59
2023/08/22 10:08:48;;;;;;;0.00;0.00;;;;;;;30.75;36.30;102076.41;5051359;28;20041;-59
2023/08/22 10:11:16;;;;;;;0.00;0.00;;;;;;;31.71;34.85;102082.03;5051631;28;20036;-59
2023/08/22 10:13:43;;;;;;;0.00;0.00;;;;;;;31.42;33.83;102082.03;5052237;28;20020;-60
2023/08/22 10:16:09;;;;;;;0.00;0.00;;;;;;;30.95;35.90;102076.53;5051395;28;20037;-60
2023/08/22 10:18:35;;;;;;;0.00;0.00;;;;;;;31.41;33.81;102078.44;5051189;28;20115;-60
2023/08/22 10:21:03;;;;;;;0.00;0.00;;;;;;;30.76;36.15;102076.06;5032066;28;20040;-60
2023/08/22 10:23:54;;;;;;;0.00;0.00;;;;;;;31.46;34.46;102083.81;5051302;28;20056;-59
2023/08/22 10:26:20;;;;;;;0.00;0.00;;;;;;;31.67;33.51;102084.66;5051154;28;20492;-61
2023/08/22 10:29:12;;;;;;;0.00;0.00;;;;;;;32.15;33.21;102086.13;5050694;28;20036;-59
2023/08/22 10:32:02;;;;;;;0.00;0.00;;;;;;;31.83;34.71;102088.47;5049272;28;20048;-60
2023/08/22 10:34:39;;;;;;;0.00;0.00;;;;;;;31.72;33.32;102084.47;5049307;28;20708;-60
2023/08/22 10:37:06;;;;;;;0.00;0.00;;;;;;;31.64;33.05;102087.31;5048103;28;20140;-60
2023/08/22 10:39:48;;;;;;;0.00;0.00;;;;;;;30.94;34.36;102086.00;5049944;28;20499;-61
2023/08/22 10:42:13;;;;;;;0.00;0.00;;;;;;;30.94;34.93;102079.63;5049480;28;20048;-60
2023/08/22 10:44:40;;;;;;;0.00;0.00;;;;;;;31.65;34.53;102084.19;5052660;28;20032;-61
2023/08/22 10:47:07;;;;;;;0.00;0.00;;;;;;;32.32;33.27;102092.34;5050096;28;20473;-59
2023/08/22 10:49:38;;;;;;;0.00;0.00;;;;;;;31.70;33.67;102080.41;5050008;28;20050;-59
2023/08/22 10:52:04;;;;;;;0.00;0.00;;;;;;;32.28;34.56;102069.16;5047577;28;20085;-59
2023/08/22 10:54:31;;;;;;;0.00;0.00;;;;;;;32.28;33.94;102071.09;5049886;28;20496;-59
2023/08/22 10:57:15;;;;;;;0.00;0.00;;;;;;;31.73;34.66;102086.09;5050032;28;20392;-59
2023/08/22 10:59:59;;;;;;;0.00;0.00;;;;;;;31.78;34.22;102096.22;5047006;28;20492;-61
2023/08/22 11:02:29;;;;;;;0.00;0.00;;;;;;;31.26;35.09;102084.56;5047568;28;20069;-59
2023/08/22 11:05:10;;;;;;;0.00;0.00;;;;;;;31.57;33.49;102076.72;5049727;28;20017;-59
2023/08/22 11:07:39;;;;;;;0.00;0.00;;;;;;;31.52;33.62;102090.81;5049060;28;20048;-59
2023/08/22 11:10:07;;;;;;;0.00;0.00;;;;;;;31.53;34.31;102084.09;5048990;28;20079;-59
2023/08/22 11:12:32;;;;;;;0.00;0.00;;;;;;;31.79;33.68;102081.16;5048507;28;20033;-60
2023/08/22 11:14:58;;;;;;;0.00;0.00;;;;;;;32.10;33.03;102066.88;5048479;28;20032;-60
2023/08/22 11:17:24;;;;;;;0.00;0.00;;;;;;;31.54;34.86;102082.13;5047973;28;20090;-58
2023/08/22 11:19:52;;;;;;;0.00;0.00;;;;;;;31.53;34.14;102083.31;5048014;28;20051;-61
2023/08/22 11:22:18;;;;;;;0.00;0.00;;;;;;;31.37;34.84;102080.22;5048066;28;20033;-60